Time;durP1;ratioP1;P1;durP2;ratioP2;P2;SDS_P1;SDS_P2;PMS_P1;PMS_P2;Temp;Humidity;BMP_temperature;BMP_pressure;BME280_temperature;BME280_humidity;BME280_pressure;Samples;Min_cycle;Max_cycle;Signal;HPM_P1;HPM_P2
2021/01/20 00:01:14;;;;;;;1.83;1.73;;;5.80;95.30;;;;;;5069048;28;20196;-58
2021/01/20 00:03:40;;;;;;;3.50;1.60;;;5.60;95.40;;;;;;5060714;28;20188;-58
2021/01/20 00:06:06;;;;;;;3.97;1.50;;;5.70;95.30;;;;;;5057737;28;20891;-60
2021/01/20 00:08:31;;;;;;;1.80;1.70;;;5.60;95.40;;;;;;5058565;28;20214;-59
2021/01/20 00:10:57;;;;;;;1.50;1.17;;;5.60;95.30;;;;;;5066791;28;20598;-60
2021/01/20 00:13:23;;;;;;;2.23;1.67;;;5.60;95.70;;;;;;5060416;28;20183;-60
2021/01/20 00:15:48;;;;;;;2.43;1.60;;;5.60;95.90;;;;;;5068345;28;20265;-60
2021/01/20 00:18:14;;;;;;;2.13;1.40;;;5.50;96.00;;;;;;5065956;28;20439;-60
2021/01/20 00:20:39;;;;;;;1.50;1.40;;;5.70;96.20;;;;;;5066458;28;20213;-59
2021/01/20 00:23:05;;;;;;;2.13;1.60;;;5.80;96.20;;;;;;5061576;28;20684;-58
2021/01/20 00:25:31;;;;;;;1.50;1.30;;;5.60;96.10;;;;;;5059801;28;20219;-58
2021/01/20 00:27:56;;;;;;;1.60;1.50;;;5.50;96.30;;;;;;5057343;28;20482;-61
2021/01/20 00:30:23;;;;;;;3.87;1.37;;;5.40;96.20;;;;;;5059580;28;20210;-59
2021/01/20 00:32:49;;;;;;;1.60;1.50;;;5.70;96.50;;;;;;5056391;28;20191;-59
2021/01/20 00:35:18;;;;;;;2.20;1.67;;;5.50;96.50;;;;;;5056771;28;20236;-60
2021/01/20 00:37:43;;;;;;;1.70;1.60;;;5.20;96.90;;;;;;5066603;28;20187;-58
2021/01/20 00:40:09;;;;;;;1.60;1.50;;;5.50;97.20;;;;;;5062342;28;20905;-59
2021/01/20 00:42:35;;;;;;;1.70;1.60;;;5.30;97.30;;;;;;5054509;28;20186;-59
2021/01/20 00:45:00;;;;;;;1.60;1.50;;;5.20;97.40;;;;;;5066400;28;20182;-60
2021/01/20 00:47:26;;;;;;;2.03;1.83;;;5.10;97.60;;;;;;5052329;28;20206;-60
2021/01/20 00:49:52;;;;;;;2.20;1.70;;;5.00;97.90;;;;;;5064956;28;20714;-60
2021/01/20 00:52:18;;;;;;;2.20;2.00;;;5.00;97.70;;;;;;5067853;28;20204;-58
2021/01/20 00:54:43;;;;;;;1.77;1.67;;;5.00;98.10;;;;;;5084564;28;20185;-60
2021/01/20 00:57:09;;;;;;;2.03;1.83;;;5.00;97.90;;;;;;5071891;28;20279;-58
2021/01/20 00:59:34;;;;;;;1.33;1.23;;;4.90;98.30;;;;;;5069004;28;20206;-57
2021/01/20 01:02:00;;;;;;;1.50;1.40;;;4.80;98.30;;;;;;5061733;28;20196;-59
2021/01/20 01:04:26;;;;;;;2.30;1.27;;;4.50;98.60;;;;;;5056738;28;20231;-59
2021/01/20 01:06:52;;;;;;;1.73;1.63;;;4.90;98.80;;;;;;5061446;28;20285;-59
2021/01/20 01:09:18;;;;;;;1.73;1.63;;;4.80;99.10;;;;;;5071114;28;20273;-57
2021/01/20 01:11:45;;;;;;;2.53;1.45;;;4.60;98.80;;;;;;5067433;28;20181;-60
2021/01/20 01:14:11;;;;;;;1.98;1.40;;;4.70;99.40;;;;;;5061624;28;20178;-59
2021/01/20 01:16:40;;;;;;;1.95;1.75;;;4.60;99.30;;;;;;5060573;28;20193;-58
2021/01/20 01:19:06;;;;;;;1.75;1.65;;;4.50;99.60;;;;;;5065601;28;20224;-58
2021/01/20 01:21:32;;;;;;;2.30;1.50;;;4.60;99.90;;;;;;5071767;28;20604;-59
2021/01/20 01:23:58;;;;;;;1.67;1.57;;;4.70;99.90;;;;;;5070210;28;20263;-58
2021/01/20 01:26:23;;;;;;;1.50;1.40;;;4.50;99.90;;;;;;5061073;28;20181;-57
2021/01/20 01:28:49;;;;;;;2.70;1.30;;;4.60;99.90;;;;;;5061221;28;20210;-58
2021/01/20 01:31:14;;;;;;;1.87;1.63;;;4.70;99.90;;;;;;5064903;28;20254;-59
2021/01/20 01:33:40;;;;;;;2.07;1.87;;;4.80;99.90;;;;;;5069441;28;20542;-58
2021/01/20 01:36:06;;;;;;;2.70;1.73;;;4.60;99.90;;;;;;5070887;28;20181;-57
2021/01/20 01:38:31;;;;;;;2.57;1.63;;;4.70;99.90;;;;;;5072299;28;20181;-60
2021/01/20 01:40:57;;;;;;;1.53;1.40;;;4.70;99.90;;;;;;5069226;28;20213;-58
2021/01/20 01:43:23;;;;;;;1.83;1.30;;;4.80;99.90;;;;;;5070678;28;20192;-60
2021/01/20 01:45:50;;;;;;;2.38;2.17;;;4.80;99.90;;;;;;5053896;28;20268;-60
2021/01/20 01:48:16;;;;;;;2.40;2.20;;;4.70;99.90;;;;;;5061235;28;20211;-59
2021/01/20 01:50:42;;;;;;;2.20;1.60;;;5.00;99.90;;;;;;5066780;28;20201;-59
2021/01/20 01:53:09;;;;;;;2.30;1.30;;;5.10;99.90;;;;;;5077304;28;20183;-60
2021/01/20 01:55:36;;;;;;;1.70;1.60;;;5.10;99.80;;;;;;5063211;28;20733;-59
2021/01/20 01:58:02;;;;;;;2.70;1.80;;;4.70;99.70;;;;;;5060448;28;20194;-58
2021/01/20 02:00:28;;;;;;;2.05;1.55;;;4.70;99.90;;;;;;5056103;28;20202;-59
2021/01/20 02:02:54;;;;;;;2.10;1.90;;;4.80;99.90;;;;;;5058064;28;20186;-60
2021/01/20 02:05:20;;;;;;;2.50;1.50;;;4.90;99.90;;;;;;5056385;28;20284;-58
2021/01/20 02:07:46;;;;;;;1.80;1.50;;;4.90;99.90;;;;;;5065369;28;20182;-58
2021/01/20 02:10:12;;;;;;;2.05;1.60;;;4.70;99.90;;;;;;5056593;28;20989;-59
2021/01/20 02:12:49;;;;;;;1.50;1.40;;;4.80;99.90;;;;;;5063966;28;20187;-60
2021/01/20 02:15:41;;;;;;;1.67;1.58;;;4.70;99.90;;;;;;5061908;28;20638;-59
2021/01/20 02:18:12;;;;;;;1.95;1.65;;;4.50;99.90;;;;;;5066793;28;20217;-60
2021/01/20 02:20:44;;;;;;;1.70;1.60;;;4.70;99.90;;;;;;5070527;28;20291;-58
2021/01/20 02:23:17;;;;;;;2.88;1.40;;;4.40;99.90;;;;;;5070466;28;20188;-58
2021/01/20 02:26:20;;;;;;;1.92;1.60;;;4.50;99.90;;;;;;5058731;28;20189;-59
2021/01/20 02:29:11;;;;;;;1.40;1.30;;;4.70;99.90;;;;;;5065093;28;20216;-58
2021/01/20 02:31:39;;;;;;;1.70;1.60;;;4.40;99.90;;;;;;5059921;28;20183;-59
2021/01/20 02:34:10;;;;;;;1.42;1.33;;;4.50;99.90;;;;;;5059670;28;20314;-58
2021/01/20 02:36:38;;;;;;;2.03;1.38;;;4.60;99.90;;;;;;5067905;28;20564;-59
2021/01/20 02:39:05;;;;;;;1.70;1.30;;;4.50;99.90;;;;;;5069020;28;20308;-58
2021/01/20 02:41:30;;;;;;;1.80;1.40;;;4.60;99.90;;;;;;5055457;28;20664;-59
2021/01/20 02:44:04;;;;;;;1.80;1.50;;;4.40;99.90;;;;;;5054479;28;20276;-59
2021/01/20 02:46:30;;;;;;;1.30;1.20;;;4.70;99.90;;;;;;5058852;28;20197;-59
2021/01/20 02:48:58;;;;;;;2.60;1.83;;;4.60;99.90;;;;;;5062745;28;20211;-59
2021/01/20 02:51:51;;;;;;;1.60;1.50;;;4.50;99.90;;;;;;5068171;28;20254;-59
2021/01/20 02:54:20;;;;;;;1.58;1.48;;;4.50;99.90;;;;;;5065599;28;20269;-58
2021/01/20 02:56:48;;;;;;;2.45;1.52;;;4.50;99.90;;;;;;5060433;28;20181;-60
2021/01/20 02:59:14;;;;;;;2.00;1.65;;;4.70;99.90;;;;;;5060580;28;20212;-60
2021/01/20 03:01:45;;;;;;;1.60;1.50;;;4.50;99.90;;;;;;5069679;28;20196;-59
2021/01/20 03:04:16;;;;;;;2.60;1.80;;;4.60;99.90;;;;;;5063743;28;20252;-59
2021/01/20 03:06:44;;;;;;;1.80;1.50;;;4.50;99.90;;;;;;5060836;28;20196;-60
2021/01/20 03:09:12;;;;;;;2.53;2.33;;;4.50;99.90;;;;;;5054399;28;20218;-58
2021/01/20 03:11:49;;;;;;;4.85;2.15;;;4.60;99.90;;;;;;5087985;28;20568;-60
2021/01/20 03:14:18;;;;;;;2.25;1.65;;;4.40;99.90;;;;;;5063530;28;20210;-60
2021/01/20 03:16:44;;;;;;;2.05;1.63;;;4.50;99.90;;;;;;5068152;28;20646;-60
2021/01/20 03:19:10;;;;;;;1.53;1.43;;;4.50;99.90;;;;;;5061086;28;20209;-60
2021/01/20 03:21:35;;;;;;;2.33;2.00;;;4.40;99.90;;;;;;5061032;28;20270;-60
2021/01/20 03:24:01;;;;;;;1.80;1.53;;;4.60;99.90;;;;;;5061940;28;20451;-59
2021/01/20 03:26:27;;;;;;;2.17;1.47;;;4.40;99.90;;;;;;5059815;28;20204;-59
2021/01/20 03:28:53;;;;;;;3.23;2.23;;;4.40;99.90;;;;;;5065214;28;20846;-59
2021/01/20 03:31:18;;;;;;;3.07;1.60;;;4.60;99.90;;;;;;5057561;28;20185;-59
2021/01/20 03:33:44;;;;;;;3.47;2.07;;;4.50;99.90;;;;;;5059388;28;20186;-60
2021/01/20 03:36:10;;;;;;;1.70;1.60;;;4.40;99.90;;;;;;5057320;28;20676;-60
2021/01/20 03:38:35;;;;;;;1.70;1.60;;;4.50;99.90;;;;;;5060573;28;20194;-60
2021/01/20 03:41:01;;;;;;;1.43;1.33;;;4.50;99.90;;;;;;5062511;28;20189;-60
2021/01/20 03:43:27;;;;;;;2.10;1.47;;;4.60;99.90;;;;;;5062355;28;20448;-60
2021/01/20 03:45:52;;;;;;;1.97;1.87;;;4.60;99.90;;;;;;5062251;28;20198;-57
2021/01/20 03:48:18;;;;;;;1.90;1.47;;;4.60;99.90;;;;;;5063447;28;20226;-58
2021/01/20 03:50:44;;;;;;;2.03;1.70;;;4.60;99.90;;;;;;5069976;28;20220;-59
2021/01/20 03:53:09;;;;;;;1.77;1.60;;;4.20;99.90;;;;;;5056797;28;20185;-60
2021/01/20 03:55:35;;;;;;;3.70;1.57;;;4.30;99.90;;;;;;5062859;28;20638;-60
2021/01/20 03:58:00;;;;;;;1.40;1.30;;;4.20;99.90;;;;;;5058476;28;20197;-60
2021/01/20 04:00:26;;;;;;;1.50;1.40;;;4.50;99.90;;;;;;5058187;28;20212;-58
2021/01/20 04:02:51;;;;;;;1.57;1.47;;;4.40;99.90;;;;;;5052556;28;20201;-59
2021/01/20 04:05:17;;;;;;;2.13;1.53;;;4.40;99.90;;;;;;5068052;28;20688;-57
2021/01/20 04:07:43;;;;;;;1.37;1.27;;;4.70;99.90;;;;;;5066720;28;20197;-56
2021/01/20 04:10:09;;;;;;;3.33;1.40;;;4.40;99.90;;;;;;5059335;28;20543;-59
2021/01/20 04:12:36;;;;;;;2.10;1.70;;;4.40;99.90;;;;;;5056676;28;20535;-60
2021/01/20 04:15:06;;;;;;;1.70;1.58;;;4.50;99.90;;;;;;5056917;28;20691;-60
2021/01/20 04:17:32;;;;;;;1.83;1.70;;;3.80;99.90;;;;;;5054504;28;20277;-59
2021/01/20 04:19:58;;;;;;;1.92;1.80;;;4.40;99.90;;;;;;5066844;28;20201;-58
2021/01/20 04:22:24;;;;;;;2.20;1.70;;;4.20;99.90;;;;;;5058867;28;20182;-58
2021/01/20 04:24:49;;;;;;;2.17;1.53;;;4.10;99.90;;;;;;5068804;28;20851;-57
2021/01/20 04:27:15;;;;;;;1.70;1.60;;;4.40;99.90;;;;;;5067851;28;20181;-58
2021/01/20 04:29:41;;;;;;;1.60;1.50;;;4.40;99.90;;;;;;5054405;28;20210;-59
2021/01/20 04:32:06;;;;;;;1.73;1.60;;;4.50;99.90;;;;;;5058052;28;20174;-58
2021/01/20 04:34:32;;;;;;;1.90;1.30;;;4.30;99.90;;;;;;5056175;28;20572;-57
2021/01/20 04:36:58;;;;;;;1.73;1.63;;;4.50;99.90;;;;;;5063939;28;20960;-58
2021/01/20 04:39:24;;;;;;;1.25;1.13;;;4.50;99.90;;;;;;5058014;28;20293;-58
2021/01/20 04:41:50;;;;;;;2.10;1.90;;;4.70;99.90;;;;;;5065149;28;20272;-58
2021/01/20 04:44:15;;;;;;;1.60;1.50;;;4.40;99.90;;;;;;5058122;28;20432;-57
2021/01/20 04:46:43;;;;;;;2.57;1.80;;;4.30;99.90;;;;;;5067971;28;20209;-58
2021/01/20 04:49:14;;;;;;;3.55;1.83;;;4.30;99.90;;;;;;5054298;28;20332;-58
2021/01/20 04:51:42;;;;;;;2.35;1.85;;;4.30;99.90;;;;;;5063516;28;20178;-59
2021/01/20 04:54:12;;;;;;;2.05;1.90;;;4.10;99.90;;;;;;5060918;28;20518;-60
2021/01/20 04:56:38;;;;;;;3.00;2.40;;;4.10;99.90;;;;;;5059444;28;20186;-59
2021/01/20 04:59:05;;;;;;;2.15;1.85;;;4.00;99.90;;;;;;5066081;28;20198;-60
2021/01/20 05:01:31;;;;;;;2.00;1.60;;;4.30;99.90;;;;;;5064663;28;20193;-59
2021/01/20 05:04:02;;;;;;;1.80;1.70;;;4.10;99.90;;;;;;5067603;28;20185;-58
2021/01/20 05:06:29;;;;;;;1.90;1.70;;;3.80;99.90;;;;;;5051015;28;20224;-59
2021/01/20 05:08:55;;;;;;;2.40;1.80;;;4.30;99.90;;;;;;5061790;28;20706;-59
2021/01/20 05:11:35;;;;;;;2.00;1.80;;;4.40;99.90;;;;;;5057323;28;20661;-61
2021/01/20 05:14:18;;;;;;;2.20;1.75;;;4.30;99.90;;;;;;5055091;28;20181;-60
2021/01/20 05:16:49;;;;;;;1.88;1.75;;;4.10;99.90;;;;;;5064070;28;20185;-58
2021/01/20 05:19:16;;;;;;;2.40;1.85;;;4.30;99.90;;;;;;5054458;28;20240;-58
2021/01/20 05:22:07;;;;;;;2.50;2.30;;;4.20;99.90;;;;;;5055978;28;20560;-58
2021/01/20 05:24:35;;;;;;;2.22;1.60;;;4.30;99.90;;;;;;5058423;28;20194;-58
2021/01/20 05:27:01;;;;;;;2.17;1.98;;;4.40;99.90;;;;;;5065130;28;20670;-61
2021/01/20 05:29:27;;;;;;;4.95;1.90;;;4.40;99.90;;;;;;5054075;28;20741;-61
2021/01/20 05:31:52;;;;;;;2.07;1.80;;;4.40;99.90;;;;;;5067262;28;20192;-57
2021/01/20 05:34:37;;;;;;;4.53;1.70;;;4.60;99.90;;;;;;5065641;28;20182;-59
2021/01/20 05:37:05;;;;;;;3.22;2.35;;;4.50;99.90;;;;;;5057090;28;20268;-59
2021/01/20 05:39:32;;;;;;;1.70;1.60;;;4.60;99.90;;;;;;5062388;28;20304;-60
2021/01/20 05:42:05;;;;;;;1.70;1.40;;;4.50;99.90;;;;;;5064478;28;20188;-58
2021/01/20 05:44:32;;;;;;;3.00;2.22;;;4.60;99.90;;;;;;5073865;28;20235;-59
2021/01/20 05:46:58;;;;;;;2.72;2.35;;;4.60;99.90;;;;;;5070809;28;20262;-60
2021/01/20 05:49:28;;;;;;;2.00;1.85;;;4.60;99.90;;;;;;5064541;28;20217;-60
2021/01/20 05:51:55;;;;;;;1.60;1.50;;;4.70;99.90;;;;;;5067606;28;20185;-60
2021/01/20 05:54:33;;;;;;;9.32;4.38;;;4.60;99.90;;;;;;5066822;28;20187;-59
2021/01/20 05:57:19;;;;;;;4.30;2.85;;;4.70;99.90;;;;;;5055307;28;20223;-60
2021/01/20 05:59:46;;;;;;;2.50;2.30;;;4.90;99.90;;;;;;5051815;28;20293;-60
2021/01/20 06:02:13;;;;;;;2.20;2.00;;;4.90;99.90;;;;;;5063704;28;20190;-60
2021/01/20 06:04:39;;;;;;;2.10;1.77;;;4.90;99.90;;;;;;5060659;28;20190;-58
2021/01/20 06:07:08;;;;;;;2.30;1.75;;;4.90;99.90;;;;;;5063035;28;20198;-60
2021/01/20 06:09:38;;;;;;;1.70;1.60;;;5.00;99.90;;;;;;5055672;28;20970;-61
2021/01/20 06:12:05;;;;;;;1.90;1.80;;;5.00;99.90;;;;;;5064395;28;20296;-62
2021/01/20 06:14:31;;;;;;;2.00;1.73;;;5.40;99.90;;;;;;5060144;28;20294;-62
2021/01/20 06:17:22;;;;;;;1.70;1.60;;;5.20;99.90;;;;;;5058582;28;20315;-61
2021/01/20 06:19:50;;;;;;;1.63;1.52;;;5.30;99.90;;;;;;5048959;28;20468;-59
2021/01/20 06:22:17;;;;;;;1.70;1.60;;;5.50;99.70;;;;;;5058941;28;20963;-60
2021/01/20 06:24:47;;;;;;;2.05;1.63;;;5.60;99.10;;;;;;5061262;28;20241;-58
2021/01/20 06:27:16;;;;;;;2.13;1.92;;;5.20;98.60;;;;;;5055426;28;20182;-60
2021/01/20 06:29:48;;;;;;;1.45;1.35;;;5.70;98.90;;;;;;5067654;28;20223;-59
2021/01/20 06:32:21;;;;;;;1.95;1.85;;;5.80;98.60;;;;;;5063197;28;20191;-60
2021/01/20 06:34:54;;;;;;;2.92;1.75;;;5.90;98.60;;;;;;5071191;28;20268;-60
2021/01/20 06:37:36;;;;;;;3.45;2.10;;;5.70;98.80;;;;;;5055790;28;20185;-61
2021/01/20 06:40:17;;;;;;;2.47;2.28;;;5.90;99.30;;;;;;5058602;28;20207;-60
2021/01/20 06:42:43;;;;;;;2.20;1.80;;;5.70;99.40;;;;;;5060582;28;20286;-61
2021/01/20 06:45:12;;;;;;;3.03;2.73;;;5.70;99.20;;;;;;5069902;28;20620;-60
2021/01/20 06:48:00;;;;;;;2.20;2.00;;;5.60;99.10;;;;;;5068040;28;20222;-60
2021/01/20 06:50:26;;;;;;;2.22;1.80;;;5.70;99.20;;;;;;5060059;28;20205;-61
2021/01/20 06:53:02;;;;;;;2.10;1.85;;;5.80;99.50;;;;;;5054045;28;20276;-52
2021/01/20 06:55:38;;;;;;;3.28;2.30;;;5.60;99.40;;;;;;5061311;28;20209;-61
2021/01/20 06:58:24;;;;;;;2.83;1.88;;;5.70;99.40;;;;;;5056013;28;20184;-59
2021/01/20 07:00:59;;;;;;;2.80;2.30;;;5.70;99.00;;;;;;5057011;28;20179;-60
2021/01/20 07:03:44;;;;;;;2.50;1.95;;;5.80;99.20;;;;;;5049686;28;20185;-60
2021/01/20 07:06:35;;;;;;;2.65;2.30;;;5.70;99.10;;;;;;5063565;28;20190;-60
2021/01/20 07:09:03;;;;;;;2.80;2.50;;;5.70;99.10;;;;;;5056053;28;20589;-58
2021/01/20 07:11:29;;;;;;;2.70;2.50;;;5.80;99.40;;;;;;5057875;28;20193;-59
2021/01/20 07:13:55;;;;;;;3.47;2.53;;;5.70;99.20;;;;;;5052936;28;20782;-57
2021/01/20 07:16:21;;;;;;;3.17;1.80;;;6.00;99.40;;;;;;5066655;28;20452;-58
2021/01/20 07:18:50;;;;;;;2.40;2.20;;;5.60;99.20;;;;;;5051402;28;20209;-57
2021/01/20 07:21:16;;;;;;;4.25;2.20;;;5.80;99.40;;;;;;5065995;28;20183;-58
2021/01/20 07:23:42;;;;;;;6.35;4.20;;;5.90;99.40;;;;;;5058396;28;20183;-58
2021/01/20 07:26:09;;;;;;;3.70;2.65;;;5.60;99.70;;;;;;5058506;28;20185;-60
2021/01/20 07:28:36;;;;;;;3.67;2.60;;;5.90;99.70;;;;;;5060854;28;20203;-60
2021/01/20 07:31:13;;;;;;;2.30;2.10;;;6.00;99.40;;;;;;5052127;28;20533;-60
2021/01/20 07:33:40;;;;;;;2.83;2.08;;;5.90;99.20;;;;;;5061183;28;20183;-58
2021/01/20 07:36:11;;;;;;;2.88;1.80;;;6.10;98.50;;;;;;5048696;28;20541;-59
2021/01/20 07:38:36;;;;;;;2.58;1.90;;;6.40;98.40;;;;;;5063107;28;20210;-60
2021/01/20 07:41:13;;;;;;;2.50;2.30;;;6.20;97.90;;;;;;5058224;28;20196;-58
2021/01/20 07:43:39;;;;;;;2.83;2.10;;;6.70;99.60;;;;;;5061380;28;20184;-58
2021/01/20 07:46:19;;;;;;;2.70;2.10;;;6.70;98.60;;;;;;5053338;28;20185;-59
2021/01/20 07:48:45;;;;;;;1.90;1.17;;;6.70;98.30;;;;;;5056916;28;20227;-57
2021/01/20 07:51:19;;;;;;;2.17;1.90;;;6.50;97.50;;;;;;5056114;28;20713;-59
2021/01/20 07:54:02;;;;;;;1.50;1.40;;;6.80;96.40;;;;;;5054992;28;20188;-58
2021/01/20 07:56:29;;;;;;;1.60;1.50;;;6.80;95.60;;;;;;5057835;28;20181;-59
2021/01/20 07:58:57;;;;;;;2.80;1.88;;;7.00;95.00;;;;;;5064622;28;20277;-57
2021/01/20 08:01:29;;;;;;;3.05;1.60;;;7.00;94.90;;;;;;5064265;28;20177;-58
2021/01/20 08:03:57;;;;;;;2.90;2.08;;;6.90;94.30;;;;;;5053944;28;20191;-58
2021/01/20 08:06:39;;;;;;;2.22;1.85;;;6.90;94.40;;;;;;5045383;28;20242;-58
2021/01/20 08:09:05;;;;;;;1.50;1.40;;;6.80;93.90;;;;;;5063460;28;20307;-58
2021/01/20 08:11:32;;;;;;;2.57;2.20;;;6.90;93.90;;;;;;5057472;28;20545;-58
2021/01/20 08:13:59;;;;;;;1.90;1.50;;;6.70;94.00;;;;;;5053164;28;20252;-58
2021/01/20 08:16:27;;;;;;;3.30;2.10;;;6.80;94.20;;;;;;5049134;28;20192;-59
2021/01/20 08:18:53;;;;;;;2.50;1.98;;;6.80;93.60;;;;;;5069113;28;20259;-60
2021/01/20 08:21:20;;;;;;;2.60;2.10;;;6.40;93.70;;;;;;5055344;28;20531;-60
2021/01/20 08:23:53;;;;;;;2.38;2.03;;;6.80;93.40;;;;;;5069055;28;20196;-57
2021/01/20 08:26:24;;;;;;;2.80;1.73;;;7.10;93.80;;;;;;5046057;28;20189;-59
2021/01/20 08:29:02;;;;;;;2.80;2.55;;;7.00;93.50;;;;;;5056433;28;20221;-57
2021/01/20 08:31:28;;;;;;;2.10;1.80;;;7.20;93.50;;;;;;5050994;28;20669;-60
2021/01/20 08:34:36;;;;;;;3.73;2.77;;;6.90;93.30;;;;;;5053211;28;20185;-58
2021/01/20 08:37:04;;;;;;;2.47;2.25;;;7.20;93.90;;;;;;5031867;28;20686;-58
2021/01/20 08:39:32;;;;;;;3.95;2.20;;;7.30;93.70;;;;;;5012002;28;20278;-57
2021/01/20 08:42:13;;;;;;;3.88;2.35;;;7.20;94.00;;;;;;5038847;28;20194;-59
2021/01/20 08:44:38;;;;;;;3.50;2.95;;;7.40;94.20;;;;;;5055145;28;20604;-58
2021/01/20 08:47:04;;;;;;;3.33;2.40;;;7.40;94.80;;;;;;5060032;28;20200;-60
2021/01/20 08:49:30;;;;;;;4.03;2.53;;;7.30;94.80;;;;;;5058199;28;20239;-58
2021/01/20 08:51:57;;;;;;;2.53;2.33;;;7.30;94.40;;;;;;5048385;28;20181;-59
2021/01/20 08:54:25;;;;;;;2.22;2.00;;;7.20;94.30;;;;;;5058582;28;20280;-58
2021/01/20 08:56:52;;;;;;;3.75;2.78;;;7.30;94.00;;;;;;5049259;28;20254;-57
2021/01/20 08:59:18;;;;;;;2.58;2.22;;;7.40;94.20;;;;;;5047472;28;20686;-57
2021/01/20 09:01:43;;;;;;;9.10;2.70;;;7.30;94.00;;;;;;5051016;28;20254;-56
2021/01/20 09:04:09;;;;;;;2.93;2.40;;;7.30;94.10;;;;;;5051819;28;20542;-57
2021/01/20 09:06:34;;;;;;;2.77;2.57;;;7.40;94.40;;;;;;5062355;28;20973;-58
2021/01/20 09:09:00;;;;;;;3.80;2.90;;;7.30;94.50;;;;;;5049762;28;20213;-59
2021/01/20 09:11:26;;;;;;;5.25;2.72;;;7.30;94.50;;;;;;5046364;28;20600;-57
2021/01/20 09:13:56;;;;;;;3.37;2.20;;;7.50;94.50;;;;;;5056903;28;20188;-58
2021/01/20 09:16:29;;;;;;;4.03;2.80;;;7.60;94.30;;;;;;5050956;28;20557;-59
2021/01/20 09:18:55;;;;;;;5.47;2.63;;;7.40;94.00;;;;;;5050706;28;20651;-57
2021/01/20 09:21:21;;;;;;;6.55;2.45;;;7.30;94.30;;;;;;5057743;28;20670;-58
2021/01/20 09:23:48;;;;;;;4.83;3.03;;;7.40;94.00;;;;;;5054300;28;20182;-57
2021/01/20 09:26:14;;;;;;;2.30;2.10;;;7.50;94.20;;;;;;5059144;28;20192;-58
2021/01/20 09:28:40;;;;;;;5.27;3.43;;;7.70;93.60;;;;;;5060638;28;20216;-58
2021/01/20 09:31:05;;;;;;;2.90;2.00;;;7.60;93.90;;;;;;5072616;28;20184;-57
2021/01/20 09:33:31;;;;;;;2.60;2.30;;;7.90;94.20;;;;;;5054279;28;20199;-61
2021/01/20 09:35:56;;;;;;;5.63;3.70;;;7.70;93.80;;;;;;5058936;28;20280;-61
2021/01/20 09:38:22;;;;;;;3.33;2.40;;;7.80;93.20;;;;;;5056827;28;20211;-58
2021/01/20 09:40:48;;;;;;;5.10;4.13;;;8.00;92.90;;;;;;5068884;28;20682;-59
2021/01/20 09:43:16;;;;;;;4.83;3.80;;;8.00;92.60;;;;;;5052971;28;20182;-58
2021/01/20 09:45:41;;;;;;;4.35;3.25;;;8.20;92.80;;;;;;5063758;28;20180;-57
2021/01/20 09:48:07;;;;;;;3.80;2.70;;;8.20;93.20;;;;;;5058215;28;20564;-56
2021/01/20 09:50:34;;;;;;;4.37;2.60;;;8.20;93.00;;;;;;5052573;28;20303;-58
2021/01/20 09:53:03;;;;;;;3.03;2.53;;;7.60;92.30;;;;;;5063922;28;20186;-57
2021/01/20 09:55:30;;;;;;;7.68;2.65;;;8.10;92.20;;;;;;5051593;28;20196;-57
2021/01/20 09:57:56;;;;;;;3.47;2.40;;;8.20;92.40;;;;;;5059270;28;20284;-57
2021/01/20 10:00:22;;;;;;;3.00;2.53;;;8.30;92.40;;;;;;5066096;28;20201;-58
2021/01/20 10:02:47;;;;;;;2.93;2.70;;;8.40;91.80;;;;;;5055826;28;20437;-58
2021/01/20 10:05:13;;;;;;;4.00;3.57;;;8.30;91.60;;;;;;5069104;28;20438;-58
2021/01/20 10:07:40;;;;;;;3.90;2.43;;;8.50;91.80;;;;;;5060079;28;20196;-59
2021/01/20 10:10:07;;;;;;;4.43;2.47;;;8.30;91.60;;;;;;5069552;28;20278;-58
2021/01/20 10:12:33;;;;;;;4.55;2.78;;;8.20;91.80;;;;;;5054280;28;20278;-61
2021/01/20 10:14:58;;;;;;;2.70;2.50;;;8.30;91.80;;;;;;5059060;28;20273;-57
2021/01/20 10:17:24;;;;;;;4.00;2.50;;;8.40;92.10;;;;;;5052997;28;20189;-57
2021/01/20 10:19:50;;;;;;;11.27;3.77;;;8.20;91.70;;;;;;5062356;28;20209;-57
2021/01/20 10:22:15;;;;;;;5.07;2.80;;;8.30;91.60;;;;;;5058228;28;20181;-58
2021/01/20 10:24:41;;;;;;;4.87;2.50;;;8.50;91.70;;;;;;5060183;28;20194;-58
2021/01/20 10:27:06;;;;;;;2.60;2.40;;;8.40;91.40;;;;;;5062231;28;20232;-57
2021/01/20 10:29:32;;;;;;;3.13;2.60;;;8.50;91.80;;;;;;5063359;28;20224;-58
2021/01/20 10:31:59;;;;;;;2.77;2.57;;;8.20;91.40;;;;;;5059092;28;20181;-60
2021/01/20 10:34:25;;;;;;;3.25;2.50;;;8.20;91.40;;;;;;5067471;28;20185;-58
2021/01/20 10:36:50;;;;;;;7.50;2.97;;;8.90;91.10;;;;;;5055311;28;20643;-58
2021/01/20 10:39:16;;;;;;;8.00;2.83;;;9.00;90.70;;;;;;5050676;28;20213;-59
2021/01/20 10:41:42;;;;;;;6.43;3.03;;;8.70;90.80;;;;;;5065321;28;20245;-58
2021/01/20 10:44:08;;;;;;;7.33;3.10;;;8.50;90.80;;;;;;5066160;28;20250;-59
2021/01/20 10:46:33;;;;;;;2.67;2.27;;;8.80;90.90;;;;;;5048224;28;20194;-58
2021/01/20 10:49:00;;;;;;;3.93;2.60;;;8.70;90.30;;;;;;5050733;28;20443;-59
2021/01/20 10:51:36;;;;;;;2.95;2.28;;;8.80;90.20;;;;;;5049787;28;20240;-58
2021/01/20 10:54:03;;;;;;;4.22;2.50;;;8.80;89.70;;;;;;5066030;28;20184;-59
2021/01/20 10:56:29;;;;;;;4.20;2.40;;;9.20;89.00;;;;;;5054249;28;20193;-59
2021/01/20 10:58:55;;;;;;;5.40;2.15;;;8.80;88.70;;;;;;5067458;28;20205;-59
2021/01/20 11:01:21;;;;;;;3.00;2.50;;;9.10;89.10;;;;;;5054568;28;20192;-58
2021/01/20 11:03:47;;;;;;;2.50;2.30;;;8.80;88.30;;;;;;5061186;28;20559;-60
2021/01/20 11:06:13;;;;;;;3.77;2.70;;;8.80;88.20;;;;;;5062538;28;20300;-59
2021/01/20 11:08:38;;;;;;;2.97;2.30;;;9.30;88.10;;;;;;5053549;28;20202;-57
2021/01/20 11:11:06;;;;;;;3.33;2.97;;;9.10;87.40;;;;;;5057490;28;20177;-57
2021/01/20 11:13:32;;;;;;;3.45;2.80;;;8.70;86.70;;;;;;5056380;28;20213;-57
2021/01/20 11:15:58;;;;;;;4.40;2.63;;;8.80;86.40;;;;;;5054701;28;20235;-58
2021/01/20 11:18:25;;;;;;;3.97;2.90;;;9.20;86.40;;;;;;5062142;28;20598;-57
2021/01/20 11:20:51;;;;;;;6.15;3.10;;;9.20;86.80;;;;;;5066890;28;20662;-58
2021/01/20 11:23:19;;;;;;;5.75;3.25;;;9.20;87.10;;;;;;5062292;28;20185;-58
2021/01/20 11:25:47;;;;;;;5.35;4.18;;;9.00;87.50;;;;;;5058006;28;20217;-57
2021/01/20 11:28:14;;;;;;;8.27;4.80;;;9.00;87.00;;;;;;5070140;28;20185;-58
2021/01/20 11:30:41;;;;;;;4.35;2.97;;;8.90;88.00;;;;;;5061815;28;20292;-57
2021/01/20 11:33:07;;;;;;;5.25;3.17;;;9.10;87.50;;;;;;5050302;28;20268;-57
2021/01/20 11:35:33;;;;;;;10.93;3.80;;;9.40;88.00;;;;;;5049414;28;20189;-57
2021/01/20 11:37:59;;;;;;;3.92;3.20;;;9.20;87.40;;;;;;5067532;28;20686;-58
2021/01/20 11:40:30;;;;;;;4.73;3.63;;;9.40;87.60;;;;;;5050927;28;20237;-58
2021/01/20 11:42:59;;;;;;;4.55;3.30;;;9.10;87.70;;;;;;5060071;28;20447;-59
2021/01/20 11:45:31;;;;;;;15.23;3.70;;;9.50;87.70;;;;;;5058362;28;20184;-59
2021/01/20 11:47:57;;;;;;;6.75;3.28;;;9.10;87.80;;;;;;5051519;28;20694;-59
2021/01/20 11:50:24;;;;;;;3.45;3.00;;;9.20;87.70;;;;;;5053381;28;20277;-58
2021/01/20 11:52:53;;;;;;;5.75;4.55;;;9.30;87.80;;;;;;5066340;28;20180;-59
2021/01/20 11:55:20;;;;;;;6.22;3.63;;;9.20;88.00;;;;;;5056653;28;20656;-59
2021/01/20 11:57:46;;;;;;;5.60;3.17;;;9.00;87.40;;;;;;5067802;28;20215;-59
2021/01/20 12:00:12;;;;;;;5.47;3.63;;;9.10;87.50;;;;;;5068175;28;20244;-59
2021/01/20 12:02:38;;;;;;;3.38;3.08;;;9.10;87.50;;;;;;5067822;28;20240;-59
2021/01/20 12:05:09;;;;;;;6.30;3.57;;;9.10;87.40;;;;;;5067396;28;20662;-56
2021/01/20 12:07:35;;;;;;;7.38;4.28;;;9.20;87.70;;;;;;5056567;28;20436;-58
2021/01/20 12:10:01;;;;;;;9.55;4.80;;;9.60;87.60;;;;;;5053786;28;20583;-58
2021/01/20 12:12:27;;;;;;;4.73;3.60;;;9.40;88.00;;;;;;5066096;28;20334;-57
2021/01/20 12:14:52;;;;;;;20.10;4.40;;;8.80;87.30;;;;;;5062269;28;20209;-58
2021/01/20 12:17:18;;;;;;;7.67;3.87;;;9.30;88.10;;;;;;5060863;28;20262;-58
2021/01/20 12:19:43;;;;;;;5.17;3.53;;;9.70;87.60;;;;;;5067674;28;20213;-58
2021/01/20 12:22:09;;;;;;;5.70;3.37;;;9.50;86.40;;;;;;5068129;28;20197;-58
2021/01/20 12:24:35;;;;;;;24.97;5.90;;;9.40;86.10;;;;;;5061662;28;20681;-58
2021/01/20 12:27:00;;;;;;;7.50;4.30;;;9.30;86.90;;;;;;5062682;28;20280;-58
2021/01/20 12:29:26;;;;;;;7.03;4.07;;;9.70;87.20;;;;;;5065979;28;20624;-58
2021/01/20 12:31:52;;;;;;;10.57;3.93;;;9.70;86.80;;;;;;5067580;28;20557;-58
2021/01/20 12:34:18;;;;;;;9.30;4.17;;;9.70;87.60;;;;;;5061277;28;20790;-58
2021/01/20 12:36:47;;;;;;;5.07;3.35;;;9.50;86.80;;;;;;5060455;28;20665;-58
2021/01/20 12:39:13;;;;;;;5.97;3.65;;;9.20;86.00;;;;;;5067379;28;20209;-58
2021/01/20 12:41:39;;;;;;;6.10;3.43;;;9.50;86.40;;;;;;5080788;28;20176;-58
2021/01/20 12:44:05;;;;;;;5.30;3.33;;;9.90;86.50;;;;;;5047024;28;20410;-58
2021/01/20 12:46:31;;;;;;;8.77;4.47;;;9.50;86.90;;;;;;5061176;28;20212;-58
2021/01/20 12:48:57;;;;;;;6.53;3.63;;;9.60;88.50;;;;;;5059602;28;20658;-58
2021/01/20 12:51:22;;;;;;;6.47;4.50;;;9.80;88.70;;;;;;5049561;28;20645;-57
2021/01/20 12:53:48;;;;;;;7.40;3.53;;;9.70;87.60;;;;;;5049116;28;20432;-58
2021/01/20 12:56:14;;;;;;;3.93;2.73;;;9.60;86.20;;;;;;5060539;28;20591;-59
2021/01/20 12:58:39;;;;;;;5.13;3.73;;;10.00;85.80;;;;;;5050534;28;20278;-58
2021/01/20 13:01:05;;;;;;;22.40;15.13;;;10.00;85.50;;;;;;5060645;28;20184;-59
2021/01/20 13:03:31;;;;;;;5.90;4.13;;;10.10;86.00;;;;;;5051964;28;20181;-58